sensor_id;sensor_type;location;lat;lon;timestamp;P1;durP1;ratioP1;P2;durP2;ratioP2
70078;SDS011;57451;52.496;13.456;2023-03-25T00:01:40;6.28;;;1.67;;
70078;SDS011;57451;52.496;13.456;2023-03-25T00:04:07;4.82;;;1.92;;
70078;SDS011;57451;52.496;13.456;2023-03-25T00:06:36;4.50;;;1.75;;
70078;SDS011;57451;52.496;13.456;2023-03-25T00:09:03;4.57;;;1.80;;
70078;SDS011;57451;52.496;13.456;2023-03-25T00:11:31;6.53;;;2.10;;
70078;SDS011;57451;52.496;13.456;2023-03-25T00:13:58;5.95;;;2.00;;
70078;SDS011;57451;52.496;13.456;2023-03-25T00:16:26;4.88;;;1.80;;
70078;SDS011;57451;52.496;13.456;2023-03-25T00:18:53;6.35;;;1.63;;
70078;SDS011;57451;52.496;13.456;2023-03-25T00:21:21;4.80;;;1.73;;
70078;SDS011;57451;52.496;13.456;2023-03-25T00:23:51;4.73;;;1.60;;
70078;SDS011;57451;52.496;13.456;2023-03-25T00:26:18;5.47;;;2.03;;
70078;SDS011;57451;52.496;13.456;2023-03-25T00:28:45;5.95;;;1.70;;
70078;SDS011;57451;52.496;13.456;2023-03-25T00:31:13;7.25;;;1.98;;
70078;SDS011;57451;52.496;13.456;2023-03-25T00:33:42;4.65;;;1.73;;
70078;SDS011;57451;52.496;13.456;2023-03-25T00:36:10;5.97;;;1.40;;
70078;SDS011;57451;52.496;13.456;2023-03-25T00:38:40;4.60;;;1.60;;
70078;SDS011;57451;52.496;13.456;2023-03-25T00:41:12;3.25;;;1.42;;
70078;SDS011;57451;52.496;13.456;2023-03-25T00:43:43;3.80;;;1.42;;
70078;SDS011;57451;52.496;13.456;2023-03-25T00:46:11;4.82;;;1.60;;
70078;SDS011;57451;52.496;13.456;2023-03-25T00:48:38;4.20;;;1.60;;
70078;SDS011;57451;52.496;13.456;2023-03-25T00:51:05;4.93;;;1.80;;
70078;SDS011;57451;52.496;13.456;2023-03-25T00:53:36;4.78;;;1.70;;
70078;SDS011;57451;52.496;13.456;2023-03-25T00:56:04;5.18;;;1.90;;
70078;SDS011;57451;52.496;13.456;2023-03-25T00:58:33;4.30;;;1.85;;
70078;SDS011;57451;52.496;13.456;2023-03-25T01:01:06;5.83;;;1.50;;
70078;SDS011;57451;52.496;13.456;2023-03-25T01:03:36;4.18;;;1.58;;
70078;SDS011;57451;52.496;13.456;2023-03-25T01:06:07;5.05;;;1.52;;
70078;SDS011;57451;52.496;13.456;2023-03-25T01:08:35;4.50;;;1.88;;
70078;SDS011;57451;52.496;13.456;2023-03-25T01:11:03;4.55;;;1.67;;
70078;SDS011;57451;52.496;13.456;2023-03-25T01:13:31;5.27;;;1.33;;
70078;SDS011;57451;52.496;13.456;2023-03-25T01:16:00;5.28;;;1.70;;
70078;SDS011;57451;52.496;13.456;2023-03-25T01:18:31;5.35;;;1.50;;
70078;SDS011;57451;52.496;13.456;2023-03-25T01:21:03;4.55;;;1.58;;
70078;SDS011;57451;52.496;13.456;2023-03-25T01:23:31;4.57;;;1.88;;
70078;SDS011;57451;52.496;13.456;2023-03-25T01:25:59;4.83;;;1.47;;
70078;SDS011;57451;52.496;13.456;2023-03-25T01:28:27;4.15;;;1.40;;
70078;SDS011;57451;52.496;13.456;2023-03-25T01:31:00;4.82;;;1.48;;
70078;SDS011;57451;52.496;13.456;2023-03-25T01:33:27;4.53;;;1.52;;
70078;SDS011;57451;52.496;13.456;2023-03-25T01:35:55;5.35;;;1.48;;
70078;SDS011;57451;52.496;13.456;2023-03-25T01:38:23;3.50;;;1.33;;
70078;SDS011;57451;52.496;13.456;2023-03-25T01:40:51;4.20;;;1.30;;
70078;SDS011;57451;52.496;13.456;2023-03-25T01:43:19;7.05;;;1.65;;
70078;SDS011;57451;52.496;13.456;2023-03-25T01:45:47;3.65;;;1.40;;
70078;SDS011;57451;52.496;13.456;2023-03-25T01:48:16;4.07;;;1.40;;
70078;SDS011;57451;52.496;13.456;2023-03-25T01:50:49;3.60;;;1.30;;
70078;SDS011;57451;52.496;13.456;2023-03-25T01:53:20;5.05;;;1.40;;
70078;SDS011;57451;52.496;13.456;2023-03-25T01:55:47;4.55;;;1.60;;
70078;SDS011;57451;52.496;13.456;2023-03-25T01:58:19;4.45;;;1.42;;
70078;SDS011;57451;52.496;13.456;2023-03-25T02:00:47;4.18;;;1.48;;
70078;SDS011;57451;52.496;13.456;2023-03-25T02:03:18;4.13;;;1.40;;
70078;SDS011;57451;52.496;13.456;2023-03-25T02:05:47;4.65;;;1.48;;
70078;SDS011;57451;52.496;13.456;2023-03-25T02:08:21;3.88;;;1.70;;
70078;SDS011;57451;52.496;13.456;2023-03-25T02:10:49;4.35;;;1.58;;
70078;SDS011;57451;52.496;13.456;2023-03-25T02:13:18;3.78;;;1.42;;
70078;SDS011;57451;52.496;13.456;2023-03-25T02:18:42;4.78;;;1.40;;
70078;SDS011;57451;52.496;13.456;2023-03-25T02:24:41;5.20;;;1.40;;
70078;SDS011;57451;52.496;13.456;2023-03-25T02:27:40;7.57;;;1.45;;
70078;SDS011;57451;52.496;13.456;2023-03-25T02:30:29;3.47;;;1.27;;
70078;SDS011;57451;52.496;13.456;2023-03-25T02:33:25;4.40;;;1.40;;
70078;SDS011;57451;52.496;13.456;2023-03-25T02:39:24;5.10;;;1.63;;
70078;SDS011;57451;52.496;13.456;2023-03-25T02:41:59;5.22;;;1.50;;
70078;SDS011;57451;52.496;13.456;2023-03-25T02:44:31;5.17;;;1.70;;
70078;SDS011;57451;52.496;13.456;2023-03-25T02:47:05;5.32;;;1.60;;
70078;SDS011;57451;52.496;13.456;2023-03-25T02:49:36;5.15;;;1.90;;
70078;SDS011;57451;52.496;13.456;2023-03-25T02:52:08;3.60;;;1.55;;
70078;SDS011;57451;52.496;13.456;2023-03-25T02:54:41;4.25;;;1.38;;
70078;SDS011;57451;52.496;13.456;2023-03-25T02:57:11;4.10;;;1.63;;
70078;SDS011;57451;52.496;13.456;2023-03-25T02:59:42;4.03;;;1.55;;
70078;SDS011;57451;52.496;13.456;2023-03-25T03:02:12;4.68;;;1.58;;
70078;SDS011;57451;52.496;13.456;2023-03-25T03:04:45;7.95;;;1.73;;
70078;SDS011;57451;52.496;13.456;2023-03-25T03:07:16;4.78;;;1.65;;
70078;SDS011;57451;52.496;13.456;2023-03-25T03:09:51;4.30;;;1.50;;
70078;SDS011;57451;52.496;13.456;2023-03-25T03:12:38;5.75;;;1.90;;
70078;SDS011;57451;52.496;13.456;2023-03-25T03:15:20;4.97;;;1.95;;
70078;SDS011;57451;52.496;13.456;2023-03-25T03:17:55;6.72;;;2.05;;
70078;SDS011;57451;52.496;13.456;2023-03-25T03:20:36;5.90;;;1.98;;
70078;SDS011;57451;52.496;13.456;2023-03-25T03:23:08;5.40;;;1.70;;
70078;SDS011;57451;52.496;13.456;2023-03-25T03:25:43;5.13;;;1.90;;
70078;SDS011;57451;52.496;13.456;2023-03-25T03:28:15;4.57;;;1.98;;
70078;SDS011;57451;52.496;13.456;2023-03-25T03:30:51;4.63;;;1.80;;
70078;SDS011;57451;52.496;13.456;2023-03-25T03:33:23;5.32;;;2.10;;
70078;SDS011;57451;52.496;13.456;2023-03-25T03:35:57;4.70;;;1.70;;
70078;SDS011;57451;52.496;13.456;2023-03-25T03:38:28;6.03;;;1.40;;
70078;SDS011;57451;52.496;13.456;2023-03-25T03:41:00;4.38;;;1.40;;
70078;SDS011;57451;52.496;13.456;2023-03-25T03:43:35;7.28;;;1.70;;
70078;SDS011;57451;52.496;13.456;2023-03-25T03:46:07;3.85;;;1.58;;
70078;SDS011;57451;52.496;13.456;2023-03-25T03:48:42;5.47;;;1.67;;
70078;SDS011;57451;52.496;13.456;2023-03-25T03:51:13;4.45;;;1.40;;
70078;SDS011;57451;52.496;13.456;2023-03-25T03:53:46;4.85;;;1.60;;
70078;SDS011;57451;52.496;13.456;2023-03-25T03:56:20;4.72;;;1.35;;
70078;SDS011;57451;52.496;13.456;2023-03-25T03:58:51;4.10;;;1.20;;
70078;SDS011;57451;52.496;13.456;2023-03-25T04:01:25;3.93;;;1.40;;
70078;SDS011;57451;52.496;13.456;2023-03-25T04:04:02;3.95;;;1.30;;
70078;SDS011;57451;52.496;13.456;2023-03-25T04:06:34;5.78;;;1.38;;
70078;SDS011;57451;52.496;13.456;2023-03-25T04:09:08;4.88;;;1.63;;
70078;SDS011;57451;52.496;13.456;2023-03-25T04:11:46;5.07;;;1.50;;
70078;SDS011;57451;52.496;13.456;2023-03-25T04:14:19;4.13;;;1.33;;
70078;SDS011;57451;52.496;13.456;2023-03-25T04:16:47;4.10;;;1.20;;
70078;SDS011;57451;52.496;13.456;2023-03-25T04:19:14;4.88;;;1.55;;
70078;SDS011;57451;52.496;13.456;2023-03-25T04:21:45;5.03;;;1.45;;
70078;SDS011;57451;52.496;13.456;2023-03-25T04:24:14;4.72;;;1.27;;
70078;SDS011;57451;52.496;13.456;2023-03-25T04:26:42;5.83;;;1.40;;
70078;SDS011;57451;52.496;13.456;2023-03-25T04:29:11;4.90;;;1.20;;
70078;SDS011;57451;52.496;13.456;2023-03-25T04:31:39;5.05;;;1.35;;
70078;SDS011;57451;52.496;13.456;2023-03-25T04:34:15;3.75;;;1.10;;
70078;SDS011;57451;52.496;13.456;2023-03-25T04:36:43;3.75;;;1.05;;
70078;SDS011;57451;52.496;13.456;2023-03-25T04:39:10;4.73;;;1.30;;
70078;SDS011;57451;52.496;13.456;2023-03-25T04:41:37;3.88;;;1.10;;
70078;SDS011;57451;52.496;13.456;2023-03-25T04:44:05;6.85;;;1.20;;
70078;SDS011;57451;52.496;13.456;2023-03-25T04:46:34;4.15;;;1.27;;
70078;SDS011;57451;52.496;13.456;2023-03-25T04:49:03;3.72;;;1.20;;
70078;SDS011;57451;52.496;13.456;2023-03-25T04:51:40;4.47;;;1.33;;
70078;SDS011;57451;52.496;13.456;2023-03-25T04:54:07;4.60;;;1.30;;
70078;SDS011;57451;52.496;13.456;2023-03-25T04:56:35;4.13;;;1.20;;
70078;SDS011;57451;52.496;13.456;2023-03-25T04:59:03;4.82;;;1.23;;
70078;SDS011;57451;52.496;13.456;2023-03-25T05:01:30;3.63;;;1.00;;
70078;SDS011;57451;52.496;13.456;2023-03-25T05:04:02;4.63;;;1.17;;
70078;SDS011;57451;52.496;13.456;2023-03-25T05:06:31;4.72;;;1.20;;
70078;SDS011;57451;52.496;13.456;2023-03-25T05:08:59;3.88;;;1.30;;
70078;SDS011;57451;52.496;13.456;2023-03-25T05:11:27;3.45;;;1.00;;
70078;SDS011;57451;52.496;13.456;2023-03-25T05:13:55;4.32;;;1.30;;
70078;SDS011;57451;52.496;13.456;2023-03-25T05:16:22;4.67;;;1.10;;
70078;SDS011;57451;52.496;13.456;2023-03-25T05:18:49;5.00;;;1.10;;
70078;SDS011;57451;52.496;13.456;2023-03-25T05:21:18;4.97;;;1.20;;
70078;SDS011;57451;52.496;13.456;2023-03-25T05:23:45;3.85;;;1.10;;
70078;SDS011;57451;52.496;13.456;2023-03-25T05:26:12;5.35;;;1.30;;
70078;SDS011;57451;52.496;13.456;2023-03-25T05:28:40;4.73;;;1.00;;
70078;SDS011;57451;52.496;13.456;2023-03-25T05:31:08;6.28;;;1.20;;
70078;SDS011;57451;52.496;13.456;2023-03-25T05:33:35;3.67;;;0.90;;
70078;SDS011;57451;52.496;13.456;2023-03-25T05:36:08;4.80;;;1.40;;
70078;SDS011;57451;52.496;13.456;2023-03-25T05:38:38;4.55;;;1.23;;
70078;SDS011;57451;52.496;13.456;2023-03-25T05:41:12;5.17;;;1.20;;
70078;SDS011;57451;52.496;13.456;2023-03-25T05:43:42;4.13;;;1.25;;
70078;SDS011;57451;52.496;13.456;2023-03-25T05:46:13;3.47;;;1.17;;
70078;SDS011;57451;52.496;13.456;2023-03-25T05:48:41;6.78;;;1.30;;
70078;SDS011;57451;52.496;13.456;2023-03-25T05:51:09;4.30;;;1.40;;
70078;SDS011;57451;52.496;13.456;2023-03-25T05:53:40;4.13;;;1.30;;
70078;SDS011;57451;52.496;13.456;2023-03-25T05:56:09;3.42;;;1.08;;
70078;SDS011;57451;52.496;13.456;2023-03-25T05:58:37;4.18;;;1.08;;
70078;SDS011;57451;52.496;13.456;2023-03-25T06:01:05;5.53;;;1.10;;
70078;SDS011;57451;52.496;13.456;2023-03-25T06:03:40;3.50;;;1.00;;
70078;SDS011;57451;52.496;13.456;2023-03-25T06:06:09;3.80;;;1.10;;
70078;SDS011;57451;52.496;13.456;2023-03-25T06:08:41;4.68;;;1.02;;
70078;SDS011;57451;52.496;13.456;2023-03-25T06:11:08;3.47;;;1.00;;
70078;SDS011;57451;52.496;13.456;2023-03-25T06:13:39;3.08;;;0.70;;
70078;SDS011;57451;52.496;13.456;2023-03-25T06:16:08;3.03;;;0.90;;
70078;SDS011;57451;52.496;13.456;2023-03-25T06:18:35;4.47;;;0.87;;
70078;SDS011;57451;52.496;13.456;2023-03-25T06:21:03;2.72;;;0.70;;
70078;SDS011;57451;52.496;13.456;2023-03-25T06:23:31;2.95;;;0.68;;
70078;SDS011;57451;52.496;13.456;2023-03-25T06:26:02;3.78;;;0.80;;
70078;SDS011;57451;52.496;13.456;2023-03-25T06:28:30;3.17;;;0.80;;
70078;SDS011;57451;52.496;13.456;2023-03-25T06:30:59;3.57;;;0.67;;
70078;SDS011;57451;52.496;13.456;2023-03-25T06:33:29;2.60;;;0.70;;
70078;SDS011;57451;52.496;13.456;2023-03-25T06:36:09;4.32;;;0.82;;
70078;SDS011;57451;52.496;13.456;2023-03-25T06:38:37;2.80;;;0.60;;
70078;SDS011;57451;52.496;13.456;2023-03-25T06:41:11;4.45;;;0.80;;
70078;SDS011;57451;52.496;13.456;2023-03-25T06:43:51;2.90;;;0.67;;
70078;SDS011;57451;52.496;13.456;2023-03-25T06:46:37;3.22;;;0.63;;
70078;SDS011;57451;52.496;13.456;2023-03-25T06:49:11;2.97;;;0.88;;
70078;SDS011;57451;52.496;13.456;2023-03-25T06:51:38;2.60;;;0.90;;
70078;SDS011;57451;52.496;13.456;2023-03-25T06:54:05;4.38;;;0.95;;
70078;SDS011;57451;52.496;13.456;2023-03-25T06:56:34;3.87;;;1.00;;
70078;SDS011;57451;52.496;13.456;2023-03-25T06:59:01;3.55;;;0.90;;
70078;SDS011;57451;52.496;13.456;2023-03-25T07:01:29;3.45;;;0.73;;
70078;SDS011;57451;52.496;13.456;2023-03-25T07:03:56;3.67;;;0.82;;
70078;SDS011;57451;52.496;13.456;2023-03-25T07:06:23;4.55;;;0.90;;
70078;SDS011;57451;52.496;13.456;2023-03-25T07:08:51;3.13;;;0.97;;
70078;SDS011;57451;52.496;13.456;2023-03-25T07:11:19;2.80;;;0.80;;
70078;SDS011;57451;52.496;13.456;2023-03-25T07:13:52;3.38;;;0.80;;
70078;SDS011;57451;52.496;13.456;2023-03-25T07:16:20;2.90;;;0.85;;
70078;SDS011;57451;52.496;13.456;2023-03-25T07:18:48;4.78;;;0.90;;
70078;SDS011;57451;52.496;13.456;2023-03-25T07:21:20;3.20;;;0.70;;
70078;SDS011;57451;52.496;13.456;2023-03-25T07:23:48;3.35;;;0.80;;
70078;SDS011;57451;52.496;13.456;2023-03-25T07:26:15;3.85;;;1.00;;
70078;SDS011;57451;52.496;13.456;2023-03-25T07:28:43;2.83;;;0.65;;
70078;SDS011;57451;52.496;13.456;2023-03-25T07:31:13;4.50;;;0.93;;
70078;SDS011;57451;52.496;13.456;2023-03-25T07:33:42;2.67;;;0.60;;
70078;SDS011;57451;52.496;13.456;2023-03-25T07:36:10;3.33;;;0.77;;
70078;SDS011;57451;52.496;13.456;2023-03-25T07:38:38;4.03;;;0.80;;
70078;SDS011;57451;52.496;13.456;2023-03-25T07:41:06;4.47;;;0.88;;
70078;SDS011;57451;52.496;13.456;2023-03-25T07:43:35;3.22;;;0.75;;
70078;SDS011;57451;52.496;13.456;2023-03-25T07:46:27;2.80;;;0.67;;
70078;SDS011;57451;52.496;13.456;2023-03-25T07:48:54;4.07;;;0.80;;
70078;SDS011;57451;52.496;13.456;2023-03-25T07:51:22;2.58;;;0.75;;
70078;SDS011;57451;52.496;13.456;2023-03-25T07:53:49;3.53;;;0.80;;
70078;SDS011;57451;52.496;13.456;2023-03-25T07:56:16;3.97;;;0.68;;
70078;SDS011;57451;52.496;13.456;2023-03-25T07:58:44;3.17;;;0.80;;
70078;SDS011;57451;52.496;13.456;2023-03-25T08:01:12;6.18;;;1.00;;
70078;SDS011;57451;52.496;13.456;2023-03-25T08:03:40;4.30;;;0.80;;
70078;SDS011;57451;52.496;13.456;2023-03-25T08:06:08;3.15;;;0.80;;
70078;SDS011;57451;52.496;13.456;2023-03-25T08:08:35;3.78;;;0.60;;
70078;SDS011;57451;52.496;13.456;2023-03-25T08:11:03;3.80;;;0.80;;
70078;SDS011;57451;52.496;13.456;2023-03-25T08:13:31;3.47;;;0.88;;
70078;SDS011;57451;52.496;13.456;2023-03-25T08:15:58;4.50;;;0.90;;
70078;SDS011;57451;52.496;13.456;2023-03-25T08:18:26;3.33;;;0.70;;
70078;SDS011;57451;52.496;13.456;2023-03-25T08:20:54;4.78;;;0.98;;
70078;SDS011;57451;52.496;13.456;2023-03-25T08:23:22;3.20;;;0.67;;
70078;SDS011;57451;52.496;13.456;2023-03-25T08:25:52;3.55;;;0.60;;
70078;SDS011;57451;52.496;13.456;2023-03-25T08:28:20;4.25;;;0.77;;
70078;SDS011;57451;52.496;13.456;2023-03-25T08:30:49;9.10;;;0.90;;
70078;SDS011;57451;52.496;13.456;2023-03-25T08:33:21;4.88;;;0.80;;
70078;SDS011;57451;52.496;13.456;2023-03-25T08:36:01;5.37;;;0.83;;
70078;SDS011;57451;52.496;13.456;2023-03-25T08:38:29;3.33;;;0.70;;
70078;SDS011;57451;52.496;13.456;2023-03-25T08:41:00;3.97;;;0.73;;
70078;SDS011;57451;52.496;13.456;2023-03-25T08:43:28;2.45;;;0.60;;
70078;SDS011;57451;52.496;13.456;2023-03-25T08:45:55;3.33;;;0.85;;
70078;SDS011;57451;52.496;13.456;2023-03-25T08:48:22;5.20;;;0.87;;
70078;SDS011;57451;52.496;13.456;2023-03-25T08:50:50;4.85;;;0.70;;
70078;SDS011;57451;52.496;13.456;2023-03-25T08:53:20;3.47;;;0.60;;
70078;SDS011;57451;52.496;13.456;2023-03-25T08:55:49;3.80;;;0.50;;
70078;SDS011;57451;52.496;13.456;2023-03-25T08:58:18;4.00;;;0.60;;
70078;SDS011;57451;52.496;13.456;2023-03-25T09:00:46;2.83;;;0.60;;
70078;SDS011;57451;52.496;13.456;2023-03-25T09:03:14;4.60;;;0.77;;
70078;SDS011;57451;52.496;13.456;2023-03-25T09:05:42;4.75;;;0.90;;
70078;SDS011;57451;52.496;13.456;2023-03-25T09:08:09;2.88;;;0.70;;
70078;SDS011;57451;52.496;13.456;2023-03-25T09:10:38;2.45;;;0.70;;
70078;SDS011;57451;52.496;13.456;2023-03-25T09:13:06;3.80;;;0.73;;
70078;SDS011;57451;52.496;13.456;2023-03-25T09:15:33;2.67;;;0.52;;
70078;SDS011;57451;52.496;13.456;2023-03-25T09:18:01;3.40;;;0.75;;
70078;SDS011;57451;52.496;13.456;2023-03-25T09:20:29;4.55;;;0.95;;
70078;SDS011;57451;52.496;13.456;2023-03-25T09:22:56;4.13;;;0.80;;
70078;SDS011;57451;52.496;13.456;2023-03-25T09:25:24;2.83;;;0.67;;
70078;SDS011;57451;52.496;13.456;2023-03-25T09:27:52;3.20;;;0.90;;
70078;SDS011;57451;52.496;13.456;2023-03-25T09:30:19;2.92;;;0.80;;
70078;SDS011;57451;52.496;13.456;2023-03-25T09:32:47;2.80;;;0.70;;
70078;SDS011;57451;52.496;13.456;2023-03-25T09:35:14;2.88;;;0.60;;
70078;SDS011;57451;52.496;13.456;2023-03-25T09:37:41;2.67;;;0.70;;
70078;SDS011;57451;52.496;13.456;2023-03-25T09:40:09;2.25;;;0.47;;
70078;SDS011;57451;52.496;13.456;2023-03-25T09:42:43;2.40;;;0.60;;
70078;SDS011;57451;52.496;13.456;2023-03-25T09:45:27;2.55;;;0.68;;
70078;SDS011;57451;52.496;13.456;2023-03-25T09:47:59;2.42;;;0.70;;
70078;SDS011;57451;52.496;13.456;2023-03-25T09:50:29;5.97;;;0.80;;
70078;SDS011;57451;52.496;13.456;2023-03-25T09:53:00;3.78;;;1.00;;
70078;SDS011;57451;52.496;13.456;2023-03-25T09:55:34;2.33;;;0.60;;
70078;SDS011;57451;52.496;13.456;2023-03-25T09:58:17;4.63;;;1.00;;
70078;SDS011;57451;52.496;13.456;2023-03-25T10:00:53;2.53;;;0.70;;
70078;SDS011;57451;52.496;13.456;2023-03-25T10:03:24;3.07;;;0.60;;
70078;SDS011;57451;52.496;13.456;2023-03-25T10:06:02;2.88;;;0.77;;
70078;SDS011;57451;52.496;13.456;2023-03-25T10:08:42;4.75;;;0.82;;
70078;SDS011;57451;52.496;13.456;2023-03-25T10:11:20;3.08;;;0.70;;
70078;SDS011;57451;52.496;13.456;2023-03-25T10:13:57;2.78;;;0.60;;
70078;SDS011;57451;52.496;13.456;2023-03-25T10:16:33;3.53;;;0.80;;
70078;SDS011;57451;52.496;13.456;2023-03-25T10:19:09;2.10;;;0.60;;
70078;SDS011;57451;52.496;13.456;2023-03-25T10:21:46;3.42;;;0.70;;
70078;SDS011;57451;52.496;13.456;2023-03-25T10:24:19;4.22;;;1.00;;
70078;SDS011;57451;52.496;13.456;2023-03-25T10:26:49;2.10;;;0.57;;
70078;SDS011;57451;52.496;13.456;2023-03-25T10:29:24;3.53;;;0.60;;
70078;SDS011;57451;52.496;13.456;2023-03-25T10:31:56;2.70;;;0.52;;
70078;SDS011;57451;52.496;13.456;2023-03-25T10:34:29;3.58;;;0.80;;
70078;SDS011;57451;52.496;13.456;2023-03-25T10:37:04;4.53;;;0.60;;
70078;SDS011;57451;52.496;13.456;2023-03-25T10:39:38;3.70;;;0.73;;
70078;SDS011;57451;52.496;13.456;2023-03-25T10:42:13;1.70;;;0.40;;
70078;SDS011;57451;52.496;13.456;2023-03-25T10:44:47;2.72;;;0.70;;
70078;SDS011;57451;52.496;13.456;2023-03-25T10:47:15;2.30;;;0.65;;
70078;SDS011;57451;52.496;13.456;2023-03-25T10:49:46;2.67;;;0.68;;
70078;SDS011;57451;52.496;13.456;2023-03-25T10:52:15;2.88;;;0.80;;
70078;SDS011;57451;52.496;13.456;2023-03-25T10:54:43;5.00;;;1.00;;
70078;SDS011;57451;52.496;13.456;2023-03-25T10:57:15;4.13;;;0.80;;
70078;SDS011;57451;52.496;13.456;2023-03-25T10:59:51;3.55;;;0.70;;
70078;SDS011;57451;52.496;13.456;2023-03-25T11:02:27;3.03;;;0.80;;
70078;SDS011;57451;52.496;13.456;2023-03-25T11:04:57;2.50;;;0.70;;
70078;SDS011;57451;52.496;13.456;2023-03-25T11:07:30;2.77;;;0.67;;
70078;SDS011;57451;52.496;13.456;2023-03-25T11:10:07;3.40;;;0.73;;
70078;SDS011;57451;52.496;13.456;2023-03-25T11:12:38;3.72;;;0.80;;
70078;SDS011;57451;52.496;13.456;2023-03-25T11:15:14;3.55;;;0.80;;
70078;SDS011;57451;52.496;13.456;2023-03-25T11:17:43;3.15;;;0.80;;
70078;SDS011;57451;52.496;13.456;2023-03-25T11:20:18;4.37;;;0.80;;
70078;SDS011;57451;52.496;13.456;2023-03-25T11:22:53;2.97;;;0.70;;
70078;SDS011;57451;52.496;13.456;2023-03-25T11:25:28;2.78;;;0.60;;
70078;SDS011;57451;52.496;13.456;2023-03-25T11:28:00;3.38;;;0.75;;
70078;SDS011;57451;52.496;13.456;2023-03-25T11:30:37;4.25;;;0.70;;
70078;SDS011;57451;52.496;13.456;2023-03-25T11:33:35;2.43;;;0.53;;
70078;SDS011;57451;52.496;13.456;2023-03-25T11:36:09;2.42;;;0.70;;
70078;SDS011;57451;52.496;13.456;2023-03-25T11:38:38;3.75;;;0.80;;
70078;SDS011;57451;52.496;13.456;2023-03-25T11:41:06;3.65;;;0.88;;
70078;SDS011;57451;52.496;13.456;2023-03-25T11:43:33;2.38;;;0.57;;
70078;SDS011;57451;52.496;13.456;2023-03-25T11:46:08;3.60;;;0.70;;
70078;SDS011;57451;52.496;13.456;2023-03-25T11:48:37;3.00;;;0.82;;
70078;SDS011;57451;52.496;13.456;2023-03-25T11:51:11;2.50;;;0.70;;
70078;SDS011;57451;52.496;13.456;2023-03-25T11:53:43;3.55;;;0.80;;
70078;SDS011;57451;52.496;13.456;2023-03-25T11:56:14;3.60;;;0.73;;
70078;SDS011;57451;52.496;13.456;2023-03-25T11:58:47;3.07;;;0.70;;
70078;SDS011;57451;52.496;13.456;2023-03-25T12:01:22;2.97;;;0.73;;
70078;SDS011;57451;52.496;13.456;2023-03-25T12:04:04;3.13;;;0.70;;
70078;SDS011;57451;52.496;13.456;2023-03-25T12:06:34;2.55;;;0.73;;
70078;SDS011;57451;52.496;13.456;2023-03-25T12:09:05;2.80;;;0.80;;
70078;SDS011;57451;52.496;13.456;2023-03-25T12:11:38;3.17;;;0.70;;
70078;SDS011;57451;52.496;13.456;2023-03-25T12:14:13;2.90;;;0.80;;
70078;SDS011;57451;52.496;13.456;2023-03-25T12:16:51;3.20;;;0.70;;
70078;SDS011;57451;52.496;13.456;2023-03-25T12:19:30;3.00;;;0.55;;
70078;SDS011;57451;52.496;13.456;2023-03-25T12:22:09;2.63;;;0.73;;
70078;SDS011;57451;52.496;13.456;2023-03-25T12:24:49;2.53;;;0.50;;
70078;SDS011;57451;52.496;13.456;2023-03-25T12:27:30;3.83;;;0.80;;
70078;SDS011;57451;52.496;13.456;2023-03-25T12:30:08;2.35;;;0.60;;
70078;SDS011;57451;52.496;13.456;2023-03-25T12:32:47;3.33;;;0.80;;
70078;SDS011;57451;52.496;13.456;2023-03-25T12:35:27;2.60;;;0.70;;
70078;SDS011;57451;52.496;13.456;2023-03-25T12:38:06;2.40;;;0.60;;
70078;SDS011;57451;52.496;13.456;2023-03-25T12:41:02;3.85;;;0.70;;
70078;SDS011;57451;52.496;13.456;2023-03-25T12:43:45;2.95;;;0.57;;
70078;SDS011;57451;52.496;13.456;2023-03-25T12:46:28;3.15;;;0.60;;
70078;SDS011;57451;52.496;13.456;2023-03-25T12:49:13;3.70;;;0.70;;
70078;SDS011;57451;52.496;13.456;2023-03-25T12:51:55;2.00;;;0.50;;
70078;SDS011;57451;52.496;13.456;2023-03-25T12:54:34;2.10;;;0.50;;
70078;SDS011;57451;52.496;13.456;2023-03-25T12:57:14;2.88;;;0.77;;
70078;SDS011;57451;52.496;13.456;2023-03-25T12:59:56;3.15;;;0.70;;
70078;SDS011;57451;52.496;13.456;2023-03-25T13:02:48;2.20;;;0.60;;
70078;SDS011;57451;52.496;13.456;2023-03-25T13:05:32;3.17;;;0.80;;
70078;SDS011;57451;52.496;13.456;2023-03-25T13:08:07;1.85;;;0.50;;
70078;SDS011;57451;52.496;13.456;2023-03-25T13:10:38;3.25;;;0.80;;
70078;SDS011;57451;52.496;13.456;2023-03-25T13:13:08;2.88;;;0.70;;
70078;SDS011;57451;52.496;13.456;2023-03-25T13:15:39;2.08;;;0.50;;
70078;SDS011;57451;52.496;13.456;2023-03-25T13:18:10;2.60;;;0.70;;
70078;SDS011;57451;52.496;13.456;2023-03-25T13:20:43;3.10;;;0.63;;
70078;SDS011;57451;52.496;13.456;2023-03-25T13:23:19;2.60;;;0.60;;
70078;SDS011;57451;52.496;13.456;2023-03-25T13:25:49;2.88;;;0.77;;
70078;SDS011;57451;52.496;13.456;2023-03-25T13:28:22;2.88;;;0.65;;
70078;SDS011;57451;52.496;13.456;2023-03-25T13:30:55;2.97;;;0.70;;
70078;SDS011;57451;52.496;13.456;2023-03-25T13:33:23;2.40;;;0.60;;
70078;SDS011;57451;52.496;13.456;2023-03-25T13:35:56;2.30;;;0.60;;
70078;SDS011;57451;52.496;13.456;2023-03-25T13:38:31;3.13;;;0.60;;
70078;SDS011;57451;52.496;13.456;2023-03-25T13:41:06;2.40;;;0.60;;
70078;SDS011;57451;52.496;13.456;2023-03-25T13:43:39;2.60;;;0.70;;
70078;SDS011;57451;52.496;13.456;2023-03-25T13:46:14;2.10;;;0.60;;
70078;SDS011;57451;52.496;13.456;2023-03-25T13:48:46;2.88;;;0.60;;
70078;SDS011;57451;52.496;13.456;2023-03-25T13:51:19;2.78;;;0.60;;
70078;SDS011;57451;52.496;13.456;2023-03-25T13:53:48;2.67;;;0.60;;
70078;SDS011;57451;52.496;13.456;2023-03-25T13:56:27;3.07;;;0.70;;
70078;SDS011;57451;52.496;13.456;2023-03-25T14:02:40;3.25;;;0.80;;
70078;SDS011;57451;52.496;13.456;2023-03-25T14:11:18;3.17;;;0.60;;
70078;SDS011;57451;52.496;13.456;2023-03-25T14:13:50;3.03;;;0.70;;
70078;SDS011;57451;52.496;13.456;2023-03-25T14:16:22;2.47;;;0.68;;
70078;SDS011;57451;52.496;13.456;2023-03-25T14:18:54;2.15;;;0.52;;
70078;SDS011;57451;52.496;13.456;2023-03-25T14:21:29;3.05;;;0.80;;
70078;SDS011;57451;52.496;13.456;2023-03-25T14:24:03;3.20;;;0.70;;
70078;SDS011;57451;52.496;13.456;2023-03-25T14:26:40;4.13;;;0.75;;
70078;SDS011;57451;52.496;13.456;2023-03-25T14:29:14;3.05;;;0.77;;
70078;SDS011;57451;52.496;13.456;2023-03-25T14:31:58;3.55;;;0.90;;
70078;SDS011;57451;52.496;13.456;2023-03-25T14:34:30;3.85;;;0.98;;
70078;SDS011;57451;52.496;13.456;2023-03-25T14:37:17;2.67;;;0.77;;
70078;SDS011;57451;52.496;13.456;2023-03-25T14:39:52;3.00;;;0.80;;
70078;SDS011;57451;52.496;13.456;2023-03-25T14:42:28;3.97;;;0.80;;
70078;SDS011;57451;52.496;13.456;2023-03-25T14:48:02;3.40;;;0.80;;
70078;SDS011;57451;52.496;13.456;2023-03-25T14:51:07;3.30;;;0.60;;
70078;SDS011;57451;52.496;13.456;2023-03-25T14:53:39;3.05;;;0.80;;
70078;SDS011;57451;52.496;13.456;2023-03-25T14:56:07;3.67;;;1.00;;
70078;SDS011;57451;52.496;13.456;2023-03-25T14:58:44;3.50;;;0.73;;
70078;SDS011;57451;52.496;13.456;2023-03-25T15:01:16;4.40;;;0.95;;
70078;SDS011;57451;52.496;13.456;2023-03-25T15:03:46;2.60;;;0.67;;
70078;SDS011;57451;52.496;13.456;2023-03-25T15:06:15;2.55;;;0.70;;
70078;SDS011;57451;52.496;13.456;2023-03-25T15:08:49;5.07;;;0.77;;
70078;SDS011;57451;52.496;13.456;2023-03-25T15:11:24;2.80;;;0.73;;
70078;SDS011;57451;52.496;13.456;2023-03-25T15:13:55;4.70;;;0.75;;
70078;SDS011;57451;52.496;13.456;2023-03-25T15:16:30;2.50;;;0.60;;
70078;SDS011;57451;52.496;13.456;2023-03-25T15:19:01;2.60;;;0.70;;
70078;SDS011;57451;52.496;13.456;2023-03-25T15:22:03;6.03;;;1.00;;
70078;SDS011;57451;52.496;13.456;2023-03-25T15:24:38;3.25;;;0.70;;